Guemes, Washington
Current Conditions -  °F | °C
As of 8:27 PM on Wednesday 28 Jan 2015 (Local Time) from KNUW Reporting Station
Haze Haze  
Wind Chill: 35°   Ceiling: Unl
Heat Index: 39°   Visibility: 1.7mi
Dew Point: 35°   Wind: 6mph
Humidity: 86%   Direction: 120°ESE
Pressure: 30.38"   Gusts: NA
Location:  48.4652°N, 122.617°W
Report Text: KNUW 290427Z 12005KT 1 3/4SM BR FEW020 FEW080 SCT240 04/02 A3038 RMK AO2 T00390017 VISNO E $
Loading
Personal Weather Stations






























Interactive Weather Map New forecast layout! Learn more

10-Day Weather Forecast

Advertisements
Track Severe Weather on mobile